Brandon, Florida
Current Conditions -  °F | °C
As of 9:35 AM on Thursday 30 Oct 2014 (Local Time) from KVDF Reporting Station
Clear Clear  
Wind Chill: 77°   Ceiling: Unl
Heat Index: 79°   Visibility: 10mi
Dew Point: 66°   Wind: 0mph
Humidity: 69%   Direction: NA
Pressure: 29.99"   Gusts: NA
Location:  27.94°N, 82.32°W
Report Text: KVDF 301335Z AUTO 00000KT 10SM CLR 25/19 A2999 RMK AO2
Loading
Personal Weather Stations






























Interactive Weather Map
Tropical Storm Tracking
New forecast layout! Learn more

10-Day Weather Forecast

Advertisements
Track Severe Weather on mobile